sensor_id;sensor_type;location;lat;lon;timestamp;P1;durP1;ratioP1;P2;durP2;ratioP2
11303;SDS011;5707;49.588;12.148;2023-03-01T00:01:58;10.93;;;9.93;;
11303;SDS011;5707;49.588;12.148;2023-03-01T00:04:24;9.45;;;8.65;;
11303;SDS011;5707;49.588;12.148;2023-03-01T00:06:49;11.27;;;10.38;;
11303;SDS011;5707;49.588;12.148;2023-03-01T00:09:16;9.88;;;8.98;;
11303;SDS011;5707;49.588;12.148;2023-03-01T00:11:41;11.00;;;10.10;;
11303;SDS011;5707;49.588;12.148;2023-03-01T00:14:07;10.98;;;10.05;;
11303;SDS011;5707;49.588;12.148;2023-03-01T00:16:37;10.02;;;9.13;;
11303;SDS011;5707;49.588;12.148;2023-03-01T00:19:05;11.45;;;10.43;;
11303;SDS011;5707;49.588;12.148;2023-03-01T00:21:32;11.20;;;10.27;;
11303;SDS011;5707;49.588;12.148;2023-03-01T00:24:00;11.90;;;10.95;;
11303;SDS011;5707;49.588;12.148;2023-03-01T00:26:26;12.50;;;11.32;;
11303;SDS011;5707;49.588;12.148;2023-03-01T00:28:52;11.57;;;10.57;;
11303;SDS011;5707;49.588;12.148;2023-03-01T00:31:23;12.73;;;11.65;;
11303;SDS011;5707;49.588;12.148;2023-03-01T00:34:01;11.48;;;10.50;;
11303;SDS011;5707;49.588;12.148;2023-03-01T00:36:29;11.98;;;10.98;;
11303;SDS011;5707;49.588;12.148;2023-03-01T00:38:56;10.40;;;9.50;;
11303;SDS011;5707;49.588;12.148;2023-03-01T00:41:23;10.25;;;9.35;;
11303;SDS011;5707;49.588;12.148;2023-03-01T00:43:49;12.43;;;11.35;;
11303;SDS011;5707;49.588;12.148;2023-03-01T00:46:16;12.00;;;10.85;;
11303;SDS011;5707;49.588;12.148;2023-03-01T00:48:45;12.40;;;10.85;;
11303;SDS011;5707;49.588;12.148;2023-03-01T00:51:12;10.82;;;10.00;;
11303;SDS011;5707;49.588;12.148;2023-03-01T00:53:40;12.35;;;11.15;;
11303;SDS011;5707;49.588;12.148;2023-03-01T00:56:06;11.88;;;10.82;;
11303;SDS011;5707;49.588;12.148;2023-03-01T00:58:34;11.27;;;10.20;;
11303;SDS011;5707;49.588;12.148;2023-03-01T01:01:00;11.75;;;10.85;;
11303;SDS011;5707;49.588;12.148;2023-03-01T01:03:31;11.82;;;10.88;;
11303;SDS011;5707;49.588;12.148;2023-03-01T01:05:57;12.40;;;11.30;;
11303;SDS011;5707;49.588;12.148;2023-03-01T01:08:22;11.77;;;10.68;;
11303;SDS011;5707;49.588;12.148;2023-03-01T01:10:48;11.68;;;10.68;;
11303;SDS011;5707;49.588;12.148;2023-03-01T01:13:13;12.27;;;11.27;;
11303;SDS011;5707;49.588;12.148;2023-03-01T01:15:39;12.65;;;11.45;;
11303;SDS011;5707;49.588;12.148;2023-03-01T01:18:05;11.98;;;11.00;;
11303;SDS011;5707;49.588;12.148;2023-03-01T01:20:31;12.27;;;11.10;;
11303;SDS011;5707;49.588;12.148;2023-03-01T01:22:57;12.60;;;11.43;;
11303;SDS011;5707;49.588;12.148;2023-03-01T01:25:22;11.73;;;10.77;;
11303;SDS011;5707;49.588;12.148;2023-03-01T01:27:50;11.90;;;10.90;;
11303;SDS011;5707;49.588;12.148;2023-03-01T01:30:15;12.35;;;11.35;;
11303;SDS011;5707;49.588;12.148;2023-03-01T01:32:41;11.38;;;10.48;;
11303;SDS011;5707;49.588;12.148;2023-03-01T01:35:07;11.63;;;10.63;;
11303;SDS011;5707;49.588;12.148;2023-03-01T01:37:32;11.98;;;10.95;;
11303;SDS011;5707;49.588;12.148;2023-03-01T01:39:58;11.60;;;10.63;;
11303;SDS011;5707;49.588;12.148;2023-03-01T01:42:25;11.75;;;10.75;;
11303;SDS011;5707;49.588;12.148;2023-03-01T01:47:58;11.50;;;10.60;;
11303;SDS011;5707;49.588;12.148;2023-03-01T01:50:35;11.95;;;10.75;;
11303;SDS011;5707;49.588;12.148;2023-03-01T01:53:12;11.88;;;10.98;;
11303;SDS011;5707;49.588;12.148;2023-03-01T01:55:45;11.80;;;10.63;;
11303;SDS011;5707;49.588;12.148;2023-03-01T01:58:14;11.35;;;10.45;;
11303;SDS011;5707;49.588;12.148;2023-03-01T02:00:42;11.75;;;10.75;;
11303;SDS011;5707;49.588;12.148;2023-03-01T02:03:10;11.90;;;10.73;;
11303;SDS011;5707;49.588;12.148;2023-03-01T02:08:18;11.90;;;10.90;;
11303;SDS011;5707;49.588;12.148;2023-03-01T02:10:45;11.30;;;10.40;;
11303;SDS011;5707;49.588;12.148;2023-03-01T02:13:12;10.88;;;9.88;;
11303;SDS011;5707;49.588;12.148;2023-03-01T02:15:39;11.43;;;10.40;;
11303;SDS011;5707;49.588;12.148;2023-03-01T02:18:06;11.38;;;10.48;;
11303;SDS011;5707;49.588;12.148;2023-03-01T02:20:42;11.48;;;10.52;;
11303;SDS011;5707;49.588;12.148;2023-03-01T02:23:10;10.95;;;10.05;;
11303;SDS011;5707;49.588;12.148;2023-03-01T02:28:22;11.32;;;10.32;;
11303;SDS011;5707;49.588;12.148;2023-03-01T02:30:50;12.38;;;11.18;;
11303;SDS011;5707;49.588;12.148;2023-03-01T02:33:37;12.60;;;11.63;;
11303;SDS011;5707;49.588;12.148;2023-03-01T02:36:05;12.57;;;11.57;;
11303;SDS011;5707;49.588;12.148;2023-03-01T02:38:34;12.25;;;11.35;;
11303;SDS011;5707;49.588;12.148;2023-03-01T02:40:59;11.75;;;10.75;;
11303;SDS011;5707;49.588;12.148;2023-03-01T02:43:29;11.40;;;10.40;;
11303;SDS011;5707;49.588;12.148;2023-03-01T02:45:58;11.63;;;10.57;;
11303;SDS011;5707;49.588;12.148;2023-03-01T02:48:38;12.23;;;11.23;;
11303;SDS011;5707;49.588;12.148;2023-03-01T02:51:11;12.73;;;11.43;;
11303;SDS011;5707;49.588;12.148;2023-03-01T02:56:21;11.32;;;10.45;;
11303;SDS011;5707;49.588;12.148;2023-03-01T02:58:47;12.35;;;11.35;;
11303;SDS011;5707;49.588;12.148;2023-03-01T03:01:16;12.10;;;11.18;;
11303;SDS011;5707;49.588;12.148;2023-03-01T03:03:43;12.13;;;11.13;;
11303;SDS011;5707;49.588;12.148;2023-03-01T03:06:08;11.68;;;10.65;;
11303;SDS011;5707;49.588;12.148;2023-03-01T03:08:34;11.35;;;10.40;;
11303;SDS011;5707;49.588;12.148;2023-03-01T03:11:00;11.43;;;10.32;;
11303;SDS011;5707;49.588;12.148;2023-03-01T03:13:26;12.35;;;11.32;;
11303;SDS011;5707;49.588;12.148;2023-03-01T03:15:53;12.10;;;10.90;;
11303;SDS011;5707;49.588;12.148;2023-03-01T03:18:20;11.88;;;10.57;;
11303;SDS011;5707;49.588;12.148;2023-03-01T03:20:45;11.25;;;10.35;;
11303;SDS011;5707;49.588;12.148;2023-03-01T03:23:11;11.63;;;10.52;;
11303;SDS011;5707;49.588;12.148;2023-03-01T03:25:37;11.13;;;10.23;;
11303;SDS011;5707;49.588;12.148;2023-03-01T03:28:03;11.82;;;10.73;;
11303;SDS011;5707;49.588;12.148;2023-03-01T03:30:35;10.10;;;9.40;;
11303;SDS011;5707;49.588;12.148;2023-03-01T03:33:04;11.63;;;10.63;;
11303;SDS011;5707;49.588;12.148;2023-03-01T03:35:34;11.30;;;10.40;;
11303;SDS011;5707;49.588;12.148;2023-03-01T03:38:05;12.25;;;11.10;;
11303;SDS011;5707;49.588;12.148;2023-03-01T03:40:40;12.00;;;10.82;;
11303;SDS011;5707;49.588;12.148;2023-03-01T03:43:09;12.18;;;10.98;;
11303;SDS011;5707;49.588;12.148;2023-03-01T03:45:37;11.10;;;10.18;;
11303;SDS011;5707;49.588;12.148;2023-03-01T03:48:04;11.93;;;10.82;;
11303;SDS011;5707;49.588;12.148;2023-03-01T03:50:31;10.90;;;9.85;;
11303;SDS011;5707;49.588;12.148;2023-03-01T03:52:57;10.90;;;9.85;;
11303;SDS011;5707;49.588;12.148;2023-03-01T03:55:24;10.55;;;9.75;;
11303;SDS011;5707;49.588;12.148;2023-03-01T03:57:54;11.43;;;10.48;;
11303;SDS011;5707;49.588;12.148;2023-03-01T04:00:22;11.85;;;10.75;;
11303;SDS011;5707;49.588;12.148;2023-03-01T04:02:48;12.13;;;11.02;;
11303;SDS011;5707;49.588;12.148;2023-03-01T04:05:16;12.77;;;11.63;;
11303;SDS011;5707;49.588;12.148;2023-03-01T04:07:43;12.25;;;11.25;;
11303;SDS011;5707;49.588;12.148;2023-03-01T04:10:14;13.35;;;12.27;;
11303;SDS011;5707;49.588;12.148;2023-03-01T04:12:41;11.98;;;10.93;;
11303;SDS011;5707;49.588;12.148;2023-03-01T04:15:08;11.93;;;11.02;;
11303;SDS011;5707;49.588;12.148;2023-03-01T04:17:41;12.20;;;11.32;;
11303;SDS011;5707;49.588;12.148;2023-03-01T04:20:09;12.32;;;11.32;;
11303;SDS011;5707;49.588;12.148;2023-03-01T04:22:36;11.63;;;10.55;;
11303;SDS011;5707;49.588;12.148;2023-03-01T04:25:02;11.80;;;10.80;;
11303;SDS011;5707;49.588;12.148;2023-03-01T04:27:30;12.70;;;11.50;;
11303;SDS011;5707;49.588;12.148;2023-03-01T04:29:59;12.00;;;10.93;;
11303;SDS011;5707;49.588;12.148;2023-03-01T04:32:25;11.95;;;10.85;;
11303;SDS011;5707;49.588;12.148;2023-03-01T04:34:50;12.10;;;11.05;;
11303;SDS011;5707;49.588;12.148;2023-03-01T04:37:16;11.93;;;10.98;;
11303;SDS011;5707;49.588;12.148;2023-03-01T04:39:41;12.15;;;11.10;;
11303;SDS011;5707;49.588;12.148;2023-03-01T04:42:12;12.60;;;11.60;;
11303;SDS011;5707;49.588;12.148;2023-03-01T04:44:38;12.07;;;11.05;;
11303;SDS011;5707;49.588;12.148;2023-03-01T04:47:03;11.73;;;10.82;;
11303;SDS011;5707;49.588;12.148;2023-03-01T04:49:29;11.73;;;10.73;;
11303;SDS011;5707;49.588;12.148;2023-03-01T04:51:54;12.55;;;11.35;;
11303;SDS011;5707;49.588;12.148;2023-03-01T04:54:23;12.20;;;11.10;;
11303;SDS011;5707;49.588;12.148;2023-03-01T04:56:48;12.25;;;11.18;;
11303;SDS011;5707;49.588;12.148;2023-03-01T04:59:14;12.93;;;11.73;;
11303;SDS011;5707;49.588;12.148;2023-03-01T05:01:39;14.20;;;12.70;;
11303;SDS011;5707;49.588;12.148;2023-03-01T05:04:07;14.90;;;12.93;;
11303;SDS011;5707;49.588;12.148;2023-03-01T05:06:38;14.00;;;12.82;;
11303;SDS011;5707;49.588;12.148;2023-03-01T05:09:04;14.25;;;13.07;;
11303;SDS011;5707;49.588;12.148;2023-03-01T05:11:30;14.50;;;13.20;;
11303;SDS011;5707;49.588;12.148;2023-03-01T05:13:58;15.80;;;14.20;;
11303;SDS011;5707;49.588;12.148;2023-03-01T05:16:24;16.88;;;15.35;;
11303;SDS011;5707;49.588;12.148;2023-03-01T05:18:49;14.00;;;12.80;;
11303;SDS011;5707;49.588;12.148;2023-03-01T05:21:16;14.05;;;12.85;;
11303;SDS011;5707;49.588;12.148;2023-03-01T05:23:42;13.80;;;12.55;;
11303;SDS011;5707;49.588;12.148;2023-03-01T05:26:08;14.32;;;13.00;;
11303;SDS011;5707;49.588;12.148;2023-03-01T05:28:34;13.00;;;11.85;;
11303;SDS011;5707;49.588;12.148;2023-03-01T05:31:00;12.95;;;11.77;;
11303;SDS011;5707;49.588;12.148;2023-03-01T05:33:26;12.55;;;11.38;;
11303;SDS011;5707;49.588;12.148;2023-03-01T05:35:52;12.02;;;10.93;;
11303;SDS011;5707;49.588;12.148;2023-03-01T05:38:18;13.43;;;12.32;;
11303;SDS011;5707;49.588;12.148;2023-03-01T05:40:46;12.55;;;11.63;;
11303;SDS011;5707;49.588;12.148;2023-03-01T05:43:13;11.77;;;10.77;;
11303;SDS011;5707;49.588;12.148;2023-03-01T05:45:40;11.88;;;10.98;;
11303;SDS011;5707;49.588;12.148;2023-03-01T05:48:07;11.98;;;11.05;;
11303;SDS011;5707;49.588;12.148;2023-03-01T05:50:38;13.15;;;11.90;;
11303;SDS011;5707;49.588;12.148;2023-03-01T05:53:15;12.95;;;11.82;;
11303;SDS011;5707;49.588;12.148;2023-03-01T05:55:43;11.25;;;10.32;;
11303;SDS011;5707;49.588;12.148;2023-03-01T05:58:13;13.00;;;11.80;;
11303;SDS011;5707;49.588;12.148;2023-03-01T06:00:40;12.38;;;11.23;;
11303;SDS011;5707;49.588;12.148;2023-03-01T06:03:09;12.15;;;10.98;;
11303;SDS011;5707;49.588;12.148;2023-03-01T06:05:36;12.32;;;11.20;;
11303;SDS011;5707;49.588;12.148;2023-03-01T06:08:02;11.60;;;10.80;;
11303;SDS011;5707;49.588;12.148;2023-03-01T06:10:28;13.05;;;11.75;;
11303;SDS011;5707;49.588;12.148;2023-03-01T06:12:54;13.77;;;12.32;;
11303;SDS011;5707;49.588;12.148;2023-03-01T06:15:20;13.13;;;11.93;;
11303;SDS011;5707;49.588;12.148;2023-03-01T06:17:45;12.82;;;11.55;;
11303;SDS011;5707;49.588;12.148;2023-03-01T06:20:29;12.57;;;11.48;;
11303;SDS011;5707;49.588;12.148;2023-03-01T06:22:55;12.55;;;11.52;;
11303;SDS011;5707;49.588;12.148;2023-03-01T06:25:22;12.00;;;11.00;;
11303;SDS011;5707;49.588;12.148;2023-03-01T06:27:49;14.05;;;12.68;;
11303;SDS011;5707;49.588;12.148;2023-03-01T06:30:17;12.73;;;11.73;;
11303;SDS011;5707;49.588;12.148;2023-03-01T06:32:44;14.40;;;13.00;;
11303;SDS011;5707;49.588;12.148;2023-03-01T06:35:10;15.00;;;13.57;;
11303;SDS011;5707;49.588;12.148;2023-03-01T06:37:37;14.00;;;12.85;;
11303;SDS011;5707;49.588;12.148;2023-03-01T06:40:04;13.32;;;12.23;;
11303;SDS011;5707;49.588;12.148;2023-03-01T06:42:34;13.98;;;12.68;;
11303;SDS011;5707;49.588;12.148;2023-03-01T06:45:00;13.52;;;12.30;;
11303;SDS011;5707;49.588;12.148;2023-03-01T06:47:26;14.85;;;13.35;;
11303;SDS011;5707;49.588;12.148;2023-03-01T06:49:52;15.77;;;14.48;;
11303;SDS011;5707;49.588;12.148;2023-03-01T06:52:17;15.00;;;13.60;;
11303;SDS011;5707;49.588;12.148;2023-03-01T06:54:43;16.20;;;14.63;;
11303;SDS011;5707;49.588;12.148;2023-03-01T06:57:08;16.27;;;14.68;;
11303;SDS011;5707;49.588;12.148;2023-03-01T06:59:34;18.45;;;15.00;;
11303;SDS011;5707;49.588;12.148;2023-03-01T07:01:59;16.13;;;14.55;;
11303;SDS011;5707;49.588;12.148;2023-03-01T07:04:25;14.07;;;12.75;;
11303;SDS011;5707;49.588;12.148;2023-03-01T07:06:53;15.38;;;14.02;;
11303;SDS011;5707;49.588;12.148;2023-03-01T07:09:20;15.15;;;13.85;;
11303;SDS011;5707;49.588;12.148;2023-03-01T07:11:47;16.75;;;15.05;;
11303;SDS011;5707;49.588;12.148;2023-03-01T07:14:13;16.35;;;14.73;;
11303;SDS011;5707;49.588;12.148;2023-03-01T07:16:39;16.90;;;15.30;;
11303;SDS011;5707;49.588;12.148;2023-03-01T07:19:04;16.40;;;14.90;;
11303;SDS011;5707;49.588;12.148;2023-03-01T07:21:30;17.08;;;15.43;;
11303;SDS011;5707;49.588;12.148;2023-03-01T07:23:56;17.58;;;15.95;;
11303;SDS011;5707;49.588;12.148;2023-03-01T07:26:22;17.33;;;15.65;;
11303;SDS011;5707;49.588;12.148;2023-03-01T07:28:47;16.40;;;14.88;;
11303;SDS011;5707;49.588;12.148;2023-03-01T07:31:13;16.88;;;15.48;;
11303;SDS011;5707;49.588;12.148;2023-03-01T07:33:39;17.90;;;16.20;;
11303;SDS011;5707;49.588;12.148;2023-03-01T07:36:05;18.15;;;16.35;;
11303;SDS011;5707;49.588;12.148;2023-03-01T07:38:31;17.88;;;16.02;;
11303;SDS011;5707;49.588;12.148;2023-03-01T07:40:57;16.52;;;14.95;;
11303;SDS011;5707;49.588;12.148;2023-03-01T07:43:24;17.08;;;15.38;;
11303;SDS011;5707;49.588;12.148;2023-03-01T07:45:50;18.83;;;16.90;;
11303;SDS011;5707;49.588;12.148;2023-03-01T07:48:16;16.67;;;15.15;;
11303;SDS011;5707;49.588;12.148;2023-03-01T07:50:42;17.60;;;15.90;;
11303;SDS011;5707;49.588;12.148;2023-03-01T07:53:08;18.58;;;16.67;;
11303;SDS011;5707;49.588;12.148;2023-03-01T07:55:34;17.30;;;15.43;;
11303;SDS011;5707;49.588;12.148;2023-03-01T07:57:59;18.85;;;17.02;;
11303;SDS011;5707;49.588;12.148;2023-03-01T08:00:25;17.40;;;15.57;;
11303;SDS011;5707;49.588;12.148;2023-03-01T08:02:51;18.58;;;16.05;;
11303;SDS011;5707;49.588;12.148;2023-03-01T08:05:16;17.90;;;16.27;;
11303;SDS011;5707;49.588;12.148;2023-03-01T08:07:42;17.08;;;15.27;;
11303;SDS011;5707;49.588;12.148;2023-03-01T08:10:08;19.45;;;17.02;;
11303;SDS011;5707;49.588;12.148;2023-03-01T08:12:34;17.60;;;16.00;;
11303;SDS011;5707;49.588;12.148;2023-03-01T08:15:00;18.42;;;16.38;;
11303;SDS011;5707;49.588;12.148;2023-03-01T08:17:25;17.75;;;16.00;;
11303;SDS011;5707;49.588;12.148;2023-03-01T08:19:51;20.25;;;17.55;;
11303;SDS011;5707;49.588;12.148;2023-03-01T08:22:16;17.45;;;15.73;;
11303;SDS011;5707;49.588;12.148;2023-03-01T08:24:42;17.15;;;15.55;;
11303;SDS011;5707;49.588;12.148;2023-03-01T08:27:07;19.02;;;17.02;;
11303;SDS011;5707;49.588;12.148;2023-03-01T08:29:33;17.75;;;16.13;;
11303;SDS011;5707;49.588;12.148;2023-03-01T08:31:59;17.95;;;16.13;;
11303;SDS011;5707;49.588;12.148;2023-03-01T08:34:24;18.42;;;16.52;;
11303;SDS011;5707;49.588;12.148;2023-03-01T08:36:50;18.02;;;15.75;;
11303;SDS011;5707;49.588;12.148;2023-03-01T08:39:17;19.52;;;17.27;;
11303;SDS011;5707;49.588;12.148;2023-03-01T08:41:44;18.63;;;16.83;;
11303;SDS011;5707;49.588;12.148;2023-03-01T08:44:11;17.67;;;15.85;;
11303;SDS011;5707;49.588;12.148;2023-03-01T08:46:39;19.95;;;16.23;;
11303;SDS011;5707;49.588;12.148;2023-03-01T08:49:06;17.35;;;15.75;;
11303;SDS011;5707;49.588;12.148;2023-03-01T08:51:34;18.08;;;16.45;;
11303;SDS011;5707;49.588;12.148;2023-03-01T08:56:56;18.88;;;16.90;;
11303;SDS011;5707;49.588;12.148;2023-03-01T08:59:24;17.92;;;16.27;;
11303;SDS011;5707;49.588;12.148;2023-03-01T09:01:50;19.27;;;17.27;;
11303;SDS011;5707;49.588;12.148;2023-03-01T09:04:16;17.50;;;15.90;;
11303;SDS011;5707;49.588;12.148;2023-03-01T09:06:41;18.40;;;16.45;;
11303;SDS011;5707;49.588;12.148;2023-03-01T09:09:10;18.70;;;16.70;;
11303;SDS011;5707;49.588;12.148;2023-03-01T09:11:40;18.58;;;16.77;;
11303;SDS011;5707;49.588;12.148;2023-03-01T09:14:05;19.02;;;17.02;;
11303;SDS011;5707;49.588;12.148;2023-03-01T09:16:31;18.52;;;16.77;;
11303;SDS011;5707;49.588;12.148;2023-03-01T09:19:01;9.70;;;8.60;;
11303;SDS011;5707;49.588;12.148;2023-03-01T09:21:27;16.98;;;15.32;;
11303;SDS011;5707;49.588;12.148;2023-03-01T09:23:52;17.17;;;15.43;;
11303;SDS011;5707;49.588;12.148;2023-03-01T09:26:19;17.02;;;15.23;;
11303;SDS011;5707;49.588;12.148;2023-03-01T09:28:47;16.80;;;15.32;;
11303;SDS011;5707;49.588;12.148;2023-03-01T09:31:14;15.27;;;13.85;;
11303;SDS011;5707;49.588;12.148;2023-03-01T09:33:41;17.92;;;16.05;;
11303;SDS011;5707;49.588;12.148;2023-03-01T09:36:09;16.27;;;14.77;;
11303;SDS011;5707;49.588;12.148;2023-03-01T09:38:40;16.02;;;14.48;;
11303;SDS011;5707;49.588;12.148;2023-03-01T09:41:23;16.08;;;14.57;;
11303;SDS011;5707;49.588;12.148;2023-03-01T09:44:15;24.17;;;16.25;;
11303;SDS011;5707;49.588;12.148;2023-03-01T09:47:03;17.00;;;15.30;;
11303;SDS011;5707;49.588;12.148;2023-03-01T09:49:35;15.73;;;14.30;;
11303;SDS011;5707;49.588;12.148;2023-03-01T09:52:26;16.20;;;14.73;;
11303;SDS011;5707;49.588;12.148;2023-03-01T09:55:00;15.55;;;14.05;;
11303;SDS011;5707;49.588;12.148;2023-03-01T09:57:28;16.10;;;14.38;;
11303;SDS011;5707;49.588;12.148;2023-03-01T10:00:20;14.85;;;13.52;;
11303;SDS011;5707;49.588;12.148;2023-03-01T10:02:58;15.30;;;13.90;;
11303;SDS011;5707;49.588;12.148;2023-03-01T10:06:10;15.25;;;13.75;;
11303;SDS011;5707;49.588;12.148;2023-03-01T10:11:43;13.95;;;12.60;;
11303;SDS011;5707;49.588;12.148;2023-03-01T10:17:03;15.77;;;14.40;;
11303;SDS011;5707;49.588;12.148;2023-03-01T10:22:18;18.52;;;14.23;;
11303;SDS011;5707;49.588;12.148;2023-03-01T10:24:47;15.20;;;13.80;;
11303;SDS011;5707;49.588;12.148;2023-03-01T10:27:22;17.67;;;15.05;;
11303;SDS011;5707;49.588;12.148;2023-03-01T10:33:03;15.32;;;12.35;;
11303;SDS011;5707;49.588;12.148;2023-03-01T10:35:38;13.77;;;12.57;;
11303;SDS011;5707;49.588;12.148;2023-03-01T10:38:10;15.15;;;13.60;;
11303;SDS011;5707;49.588;12.148;2023-03-01T10:40:55;11.95;;;10.88;;
11303;SDS011;5707;49.588;12.148;2023-03-01T10:43:23;14.98;;;13.48;;
11303;SDS011;5707;49.588;12.148;2023-03-01T10:46:22;14.68;;;13.23;;
11303;SDS011;5707;49.588;12.148;2023-03-01T10:49:07;13.18;;;11.90;;
11303;SDS011;5707;49.588;12.148;2023-03-01T10:51:36;15.13;;;13.55;;
11303;SDS011;5707;49.588;12.148;2023-03-01T10:54:03;13.73;;;12.23;;
11303;SDS011;5707;49.588;12.148;2023-03-01T10:56:31;13.38;;;12.32;;
11303;SDS011;5707;49.588;12.148;2023-03-01T10:59:34;12.45;;;11.45;;
11303;SDS011;5707;49.588;12.148;2023-03-01T11:02:14;11.45;;;10.35;;
11303;SDS011;5707;49.588;12.148;2023-03-01T11:07:23;13.70;;;12.40;;
11303;SDS011;5707;49.588;12.148;2023-03-01T11:09:49;16.08;;;14.57;;
11303;SDS011;5707;49.588;12.148;2023-03-01T11:12:15;14.27;;;12.93;;
11303;SDS011;5707;49.588;12.148;2023-03-01T11:14:49;14.00;;;12.45;;
11303;SDS011;5707;49.588;12.148;2023-03-01T11:19:59;13.45;;;12.10;;
11303;SDS011;5707;49.588;12.148;2023-03-01T11:22:45;13.32;;;12.05;;
11303;SDS011;5707;49.588;12.148;2023-03-01T11:25:15;13.30;;;11.25;;
11303;SDS011;5707;49.588;12.148;2023-03-01T11:27:44;14.35;;;12.88;;
11303;SDS011;5707;49.588;12.148;2023-03-01T11:30:22;13.40;;;12.30;;
11303;SDS011;5707;49.588;12.148;2023-03-01T11:32:53;12.98;;;11.88;;
11303;SDS011;5707;49.588;12.148;2023-03-01T11:35:26;14.20;;;13.00;;
11303;SDS011;5707;49.588;12.148;2023-03-01T11:38:05;14.40;;;13.18;;
11303;SDS011;5707;49.588;12.148;2023-03-01T11:40:42;14.20;;;12.95;;
11303;SDS011;5707;49.588;12.148;2023-03-01T11:54:30;16.65;;;13.65;;
11303;SDS011;5707;49.588;12.148;2023-03-01T12:00:19;14.23;;;12.95;;
11303;SDS011;5707;49.588;12.148;2023-03-01T12:14:05;15.48;;;14.07;;
11303;SDS011;5707;49.588;12.148;2023-03-01T12:16:40;14.70;;;13.50;;
11303;SDS011;5707;49.588;12.148;2023-03-01T12:28:03;17.08;;;13.60;;
11303;SDS011;5707;49.588;12.148;2023-03-01T12:31:15;15.43;;;14.10;;
11303;SDS011;5707;49.588;12.148;2023-03-01T12:39:37;15.00;;;13.70;;
11303;SDS011;5707;49.588;12.148;2023-03-01T12:50:43;14.07;;;12.77;;
11303;SDS011;5707;49.588;12.148;2023-03-01T12:53:26;14.25;;;13.00;;
11303;SDS011;5707;49.588;12.148;2023-03-01T12:55:53;13.45;;;12.15;;
11303;SDS011;5707;49.588;12.148;2023-03-01T13:01:19;13.40;;;12.20;;
11303;SDS011;5707;49.588;12.148;2023-03-01T13:11:59;13.07;;;11.50;;
11303;SDS011;5707;49.588;12.148;2023-03-01T13:16:51;12.38;;;11.38;;
11303;SDS011;5707;49.588;12.148;2023-03-01T13:19:18;13.25;;;12.18;;
11303;SDS011;5707;49.588;12.148;2023-03-01T13:21:49;13.23;;;12.13;;
11303;SDS011;5707;49.588;12.148;2023-03-01T13:29:46;11.43;;;10.40;;
11303;SDS011;5707;49.588;12.148;2023-03-01T13:32:20;13.60;;;12.48;;
11303;SDS011;5707;49.588;12.148;2023-03-01T13:37:45;12.80;;;11.70;;
11303;SDS011;5707;49.588;12.148;2023-03-01T13:42:46;12.35;;;11.20;;
11303;SDS011;5707;49.588;12.148;2023-03-01T13:45:23;14.00;;;12.80;;
11303;SDS011;5707;49.588;12.148;2023-03-01T13:48:01;12.02;;;11.00;;
11303;SDS011;5707;49.588;12.148;2023-03-01T13:50:33;12.10;;;11.00;;
11303;SDS011;5707;49.588;12.148;2023-03-01T13:53:11;12.32;;;11.32;;
11303;SDS011;5707;49.588;12.148;2023-03-01T13:55:43;14.40;;;13.10;;
11303;SDS011;5707;49.588;12.148;2023-03-01T13:58:21;13.95;;;12.80;;
11303;SDS011;5707;49.588;12.148;2023-03-01T14:03:29;14.65;;;13.25;;
11303;SDS011;5707;49.588;12.148;2023-03-01T14:06:06;14.00;;;12.75;;
11303;SDS011;5707;49.588;12.148;2023-03-01T14:08:40;14.63;;;13.23;;
11303;SDS011;5707;49.588;12.148;2023-03-01T14:11:13;13.85;;;12.68;;
11303;SDS011;5707;49.588;12.148;2023-03-01T14:19:17;14.57;;;13.07;;
11303;SDS011;5707;49.588;12.148;2023-03-01T14:21:46;13.98;;;12.68;;
11303;SDS011;5707;49.588;12.148;2023-03-01T14:24:20;14.52;;;13.10;;
11303;SDS011;5707;49.588;12.148;2023-03-01T14:26:47;12.55;;;11.55;;
11303;SDS011;5707;49.588;12.148;2023-03-01T14:29:35;13.55;;;12.45;;
11303;SDS011;5707;49.588;12.148;2023-03-01T14:32:20;13.02;;;11.82;;
11303;SDS011;5707;49.588;12.148;2023-03-01T14:34:49;14.88;;;13.70;;
11303;SDS011;5707;49.588;12.148;2023-03-01T14:37:20;14.38;;;13.15;;
11303;SDS011;5707;49.588;12.148;2023-03-01T14:39:49;14.45;;;13.10;;
11303;SDS011;5707;49.588;12.148;2023-03-01T14:42:15;13.10;;;12.00;;
11303;SDS011;5707;49.588;12.148;2023-03-01T14:44:51;14.15;;;12.75;;
11303;SDS011;5707;49.588;12.148;2023-03-01T14:47:28;14.32;;;13.07;;
11303;SDS011;5707;49.588;12.148;2023-03-01T14:49:57;13.63;;;12.43;;
11303;SDS011;5707;49.588;12.148;2023-03-01T14:52:45;13.70;;;12.27;;
11303;SDS011;5707;49.588;12.148;2023-03-01T14:55:15;13.10;;;11.95;;
11303;SDS011;5707;49.588;12.148;2023-03-01T14:57:44;13.65;;;12.35;;
11303;SDS011;5707;49.588;12.148;2023-03-01T15:00:22;13.45;;;12.35;;
11303;SDS011;5707;49.588;12.148;2023-03-01T15:02:56;14.15;;;12.88;;
11303;SDS011;5707;49.588;12.148;2023-03-01T15:05:29;15.90;;;12.65;;
11303;SDS011;5707;49.588;12.148;2023-03-01T15:07:59;14.00;;;12.68;;
11303;SDS011;5707;49.588;12.148;2023-03-01T15:10:28;20.73;;;13.07;;
11303;SDS011;5707;49.588;12.148;2023-03-01T15:12:56;15.43;;;13.90;;
11303;SDS011;5707;49.588;12.148;2023-03-01T15:15:39;13.32;;;12.13;;
11303;SDS011;5707;49.588;12.148;2023-03-01T15:18:18;12.77;;;11.57;;
11303;SDS011;5707;49.588;12.148;2023-03-01T15:20:54;13.55;;;12.45;;
11303;SDS011;5707;49.588;12.148;2023-03-01T15:23:29;14.15;;;12.45;;
11303;SDS011;5707;49.588;12.148;2023-03-01T15:25:56;12.45;;;11.35;;
11303;SDS011;5707;49.588;12.148;2023-03-01T15:28:23;14.10;;;12.82;;
11303;SDS011;5707;49.588;12.148;2023-03-01T15:31:00;12.18;;;11.18;;
11303;SDS011;5707;49.588;12.148;2023-03-01T15:33:49;11.15;;;10.05;;
11303;SDS011;5707;49.588;12.148;2023-03-01T15:36:32;13.43;;;12.27;;
11303;SDS011;5707;49.588;12.148;2023-03-01T15:45:06;12.45;;;11.48;;
11303;SDS011;5707;49.588;12.148;2023-03-01T15:47:40;12.95;;;11.80;;
11303;SDS011;5707;49.588;12.148;2023-03-01T15:50:17;14.00;;;12.63;;
11303;SDS011;5707;49.588;12.148;2023-03-01T15:52:48;14.00;;;12.70;;
11303;SDS011;5707;49.588;12.148;2023-03-01T15:55:32;12.85;;;11.65;;
11303;SDS011;5707;49.588;12.148;2023-03-01T15:58:00;12.32;;;11.20;;
11303;SDS011;5707;49.588;12.148;2023-03-01T16:00:28;13.75;;;12.65;;
11303;SDS011;5707;49.588;12.148;2023-03-01T16:02:54;14.15;;;12.80;;
11303;SDS011;5707;49.588;12.148;2023-03-01T16:07:48;13.73;;;12.63;;
11303;SDS011;5707;49.588;12.148;2023-03-01T16:10:14;12.88;;;11.75;;
11303;SDS011;5707;49.588;12.148;2023-03-01T16:12:40;12.85;;;11.85;;
11303;SDS011;5707;49.588;12.148;2023-03-01T16:15:22;15.73;;;14.38;;
11303;SDS011;5707;49.588;12.148;2023-03-01T16:17:48;14.13;;;12.85;;
11303;SDS011;5707;49.588;12.148;2023-03-01T16:20:14;13.70;;;12.30;;
11303;SDS011;5707;49.588;12.148;2023-03-01T16:22:43;15.68;;;14.27;;
11303;SDS011;5707;49.588;12.148;2023-03-01T16:25:10;14.25;;;13.02;;
11303;SDS011;5707;49.588;12.148;2023-03-01T16:27:43;14.38;;;12.98;;
11303;SDS011;5707;49.588;12.148;2023-03-01T16:30:11;15.35;;;13.43;;
11303;SDS011;5707;49.588;12.148;2023-03-01T16:32:41;16.75;;;15.30;;
11303;SDS011;5707;49.588;12.148;2023-03-01T16:35:09;15.65;;;14.25;;
11303;SDS011;5707;49.588;12.148;2023-03-01T16:37:36;15.10;;;13.80;;